Nearby METAR Reports

 

KCMA - Camarillo, California, USA
Distance from station: WSW 4mi, 7km
Updated: Tue, 13-Apr-2021 6:55pm PDT
Overcast
Overcast
 Wind from W
Wind: W 10 mph , 17 km/h
Temperature: 61°F , 16°C
Dew Point: 46°F , 8°C
Humidity: 59%
Barometer: 29.90 inHg , 1012.5 hPa
Clouds: Overcast
Visibility: 9 miles , 14 km
Cloud details: Partly cloudy 3500 ft
Overcast 4400 ft
2021/04/14 01:55 KCMA 140155Z 26009KT 9SM SCT035 OVC044 16/08 A2990 RMK AO2 SLP133 T01610083
KNTD - Point Mugu Nas, California, USA
Distance from station: SSW 9mi, 15km
Updated: Tue, 13-Apr-2021 6:52pm PDT
Partly cloudy
Partly cloudy
 Wind from W
Wind: W 8 mph , 13 km/h
Temperature: 55°F , 13°C
Dew Point: 48°F , 9°C
Humidity: 77%
Barometer: 29.92 inHg , 1013.2 hPa
Clouds: Partly cloudy
Visibility: 8 miles , 13 km
Cloud details: Few Clouds 1700 ft
Partly cloudy 4000 ft
Partly cloudy 26000 ft
2021/04/14 01:52 KNTD 140152Z 28007KT 8SM FEW017 SCT040 SCT260 13/09 A2992 RMK AO2 SLP132 T01330089 VISNO N $
 
KOXR - Oxnard, California, USA
Distance from station: WSW 10mi, 16km
Updated: Tue, 13-Apr-2021 7:37pm PDT
Overcast
Overcast
 Wind from W
Wind: W 10 mph , 17 km/h
Temperature: 54°F , 12°C
Dew Point: 48°F , 9°C
Humidity: 82%
Barometer: 29.91 inHg , 1012.9 hPa
Clouds: Overcast
Visibility: 9 miles , 14 km
Cloud details: Few Clouds 2100 ft
Mostly cloudy 2800 ft
Overcast 3700 ft
2021/04/14 02:37 KOXR 140237Z 26009KT 9SM FEW021 BKN028 OVC037 12/09 A2991 RMK AO2 T01220094
KVNY - Van Nuys, California, USA
Distance from station: E 31mi, 50km
Updated: Tue, 13-Apr-2021 6:51pm PDT
Overcast
Overcast
 Wind from SSE
Wind: SSE 9 mph , 15 km/h
Temperature: 59°F , 15°C
Dew Point: 48°F , 9°C
Humidity: 68%
Barometer: 29.87 inHg , 1011.5 hPa
Clouds: Overcast
Visibility: 10 miles , 16 km
Cloud details: Overcast 3500 ft
2021/04/14 01:51 KVNY 140151Z 15008KT 10SM OVC035 15/09 A2987 RMK AO2 SLP110 T01500089
 
KWHP - La / Whiteman, California, USA
Distance from station: E 35mi, 56km
Updated: Tue, 13-Apr-2021 7:55pm PDT
Clear
Clear
 Wind from calm
Wind: Calm
Temperature: 55°F , 13°C
Dew Point: 48°F , 9°C
Humidity: 77%
Barometer: 29.93 inHg , 1013.5 hPa
Clouds: Clear
Visibility: 10 miles , 16 km
2021/04/14 02:55 KWHP 140255Z 00000KT 10SM SKC 13/09 A2993
KSMO - Santa Monica, California, USA
Distance from station: ESE 36mi, 58km
Updated: Tue, 13-Apr-2021 6:51pm PDT
Mostly cloudy
Mostly cloudy
 Wind from SW
Wind: SW 7 mph , 11 km/h
Temperature: 57°F , 14°C
Dew Point: 48°F , 9°C
Humidity: 72%
Barometer: 29.90 inHg , 1012.5 hPa
Clouds: Mostly cloudy
Visibility: 10 miles , 16 km
Cloud details: Mostly cloudy 2200 ft
2021/04/14 01:51 KSMO 140151Z 23006KT 10SM BKN022 14/09 A2990 RMK AO2 SLP125 T01440094
 
KBUR - Burbank, California, USA
Distance from station: E 38mi, 61km
Updated: Tue, 13-Apr-2021 6:53pm PDT
Overcast
Overcast
 Wind from S
Wind: S 9 mph , 15 km/h
Temperature: 57°F , 14°C
Dew Point: 48°F , 9°C
Humidity: 72%
Barometer: 29.88 inHg , 1011.9 hPa
Clouds: Overcast
Visibility: 10 miles , 16 km
Cloud details: Overcast 2500 ft
2021/04/14 01:53 KBUR 140153Z 19008KT 10SM OVC025 14/09 A2988 RMK AO2 SLP110 T01390089 $
KSDB - Sandberg, California, USA
Distance from station: NNE 40mi, 64km
Updated: Tue, 13-Apr-2021 7:09pm PDT
Fog, Overcast
Fog, Overcast
 Wind from S
Wind: S 18 mph , 30 km/h, Gust: 24 mph , 39 km/h
Temperature: 46°F , 8°C
Wind Chill: 39°F , 4°C
Dew Point: 43°F , 6°C
Humidity: 87%
Barometer: 29.86 inHg , 1011.2 hPa
Summary: Fog
Clouds: Overcast
Visibility: less than 1/4 mile , 0.4 km
Cloud details: Overcast 100 ft
2021/04/14 02:09 KSDB 140209Z AUTO 18016G21KT M1/4SM FG VV001 08/06 A2986 RMK AO2 T00780061
 
KLAX - Los Angeles, California, USA
Distance from station: ESE 42mi, 68km
Updated: Tue, 13-Apr-2021 6:53pm PDT
Mostly cloudy
Mostly cloudy
 Wind from W
Wind: W 13 mph , 20 km/h
Temperature: 57°F , 14°C
Dew Point: 50°F , 10°C
Humidity: 77%
Barometer: 29.91 inHg , 1012.9 hPa
Clouds: Mostly cloudy
Visibility: 10 miles , 16 km
Cloud details: Mostly cloudy 1900 ft
Mostly cloudy 2500 ft
2021/04/14 01:53 KLAX 140153Z 27011KT 10SM BKN019 BKN025 14/10 A2991 RMK AO2 SLP126 T01390100 $
KCQT - Los Angeles, California, USA
Distance from station: ESE 45mi, 73km
Updated: Tue, 13-Apr-2021 6:52pm PDT
Overcast
Overcast
 Wind from varies
Wind: varies 6 mph , 9 km/h
Temperature: 61°F , 16°C
Dew Point: 48°F , 9°C
Humidity: 63%
Barometer: 29.89 inHg , 1012.2 hPa
Clouds: Overcast
Visibility: 10 miles , 16 km
Cloud details: Overcast 2300 ft
2021/04/14 01:52 KCQT 140152Z AUTO VRB05KT 10SM OVC023 16/09 A2989 RMK AO2 SLP121 T01560094
 
KHHR - Hawthorne, California, USA
Distance from station: ESE 45mi, 73km
Updated: Tue, 13-Apr-2021 6:53pm PDT
Overcast
Overcast
 Wind from W
Wind: W 6 mph , 9 km/h
Temperature: 59°F , 15°C
Dew Point: 50°F , 10°C
Humidity: 72%
Barometer: 29.91 inHg , 1012.9 hPa
Clouds: Overcast
Visibility: 10 miles , 16 km
Cloud details: Mostly cloudy 1800 ft
Overcast 2400 ft
2021/04/14 01:53 KHHR 140153Z 28005KT 10SM BKN018 OVC024 15/10 A2991 RMK AO2 SLP127 T01500100
KSBA - Santa Barbara, California, USA
Distance from station: WNW 49mi, 79km
Updated: Tue, 13-Apr-2021 6:53pm PDT
Clear
Clear
 Wind from W
Wind: W 7 mph , 11 km/h
Temperature: 57°F , 14°C
Dew Point: 48°F , 9°C
Humidity: 72%
Barometer: 29.88 inHg , 1011.9 hPa
Clouds: Clear
Visibility: 9 miles , 14 km
2021/04/14 01:53 KSBA 140153Z 26006KT 9SM CLR 14/09 A2988 RMK AO2 SLP117 T01440089